createdAt,value
2022-08-30T00:02:39.065Z,18.3
2022-08-30T00:17:39.013Z,18.1
2022-08-30T00:32:39.021Z,18.1
2022-08-30T00:47:39.010Z,18.1
2022-08-30T01:02:39.108Z,17.8
2022-08-30T01:17:39.009Z,17.6
2022-08-30T01:32:39.007Z,17.5
2022-08-30T01:47:39.003Z,17.3
2022-08-30T02:02:39.002Z,17.1
2022-08-30T02:17:39.012Z,17.1
2022-08-30T02:32:38.997Z,16.9
2022-08-30T02:47:40.232Z,16.8
2022-08-30T03:02:39.012Z,16.6
2022-08-30T03:17:39.016Z,16.4
2022-08-30T03:32:39.009Z,16.4
2022-08-30T03:47:39.003Z,16.4
2022-08-30T04:02:39.053Z,16.2
2022-08-30T04:17:39.008Z,16.4
2022-08-30T04:32:39.018Z,16.5
2022-08-30T04:47:39.011Z,16.5
2022-08-30T05:02:39.043Z,16.4
2022-08-30T05:17:39.005Z,16.2
2022-08-30T05:32:39.006Z,16.4
2022-08-30T05:47:39.012Z,16.4
2022-08-30T06:02:39.056Z,16.6
2022-08-30T06:17:39.008Z,17.2
2022-08-30T06:32:39.011Z,17.2
2022-08-30T06:47:39.015Z,17.5
2022-08-30T07:02:39.055Z,17.9
2022-08-30T07:17:39.000Z,18.2
2022-08-30T07:32:39.028Z,18.5
2022-08-30T07:47:39.007Z,18.9
2022-08-30T08:02:39.047Z,19.4
2022-08-30T08:17:39.013Z,19.9
2022-08-30T08:32:39.001Z,20.5
2022-08-30T08:47:39.004Z,20.9
2022-08-30T09:02:39.009Z,21.2
2022-08-30T09:17:39.018Z,21.1
2022-08-30T09:32:39.011Z,21.6
2022-08-30T09:47:39.017Z,21.9
2022-08-30T10:02:39.008Z,22.1
2022-08-30T10:17:39.009Z,22.4
2022-08-30T10:32:39.009Z,22.9
2022-08-30T10:47:39.017Z,22.9
2022-08-30T11:02:39.238Z,23.6
2022-08-30T11:17:39.011Z,23.9
2022-08-30T11:32:39.095Z,23.9
2022-08-30T11:47:39.015Z,24.1
2022-08-30T12:02:39.096Z,24.2
2022-08-30T12:17:39.090Z,24.8
2022-08-30T12:32:39.006Z,25.1
2022-08-30T12:47:39.015Z,25.2
2022-08-30T13:02:39.013Z,25.4
2022-08-30T13:17:39.013Z,25.3
2022-08-30T13:32:39.162Z,25.6
2022-08-30T13:47:39.138Z,25.6
2022-08-30T14:02:43.632Z,25.9
2022-08-30T14:17:39.022Z,26.7
2022-08-30T14:32:39.012Z,27.4
2022-08-30T14:47:39.019Z,28.2
2022-08-30T15:02:39.010Z,28.1
2022-08-30T15:17:39.014Z,28.1
2022-08-30T15:32:39.010Z,27.9
2022-08-30T15:47:39.012Z,27.7
2022-08-30T16:02:39.128Z,27.7
2022-08-30T16:17:39.293Z,27.9
2022-08-30T16:32:39.694Z,27.4
2022-08-30T16:47:39.048Z,26.1
2022-08-30T17:02:39.042Z,25.6
2022-08-30T17:17:39.021Z,25.2
2022-08-30T17:32:39.011Z,24.9
2022-08-30T17:47:39.009Z,24.6
2022-08-30T18:02:39.054Z,24.3
2022-08-30T18:17:39.005Z,23.9
2022-08-30T18:32:38.998Z,23.6
2022-08-30T18:47:39.037Z,23.3
2022-08-30T19:02:39.006Z,23.1
2022-08-30T19:17:39.004Z,22.9
2022-08-30T19:32:39.010Z,22.6
2022-08-30T19:47:39.005Z,22.5
2022-08-30T20:02:39.027Z,22.3
2022-08-30T20:32:39.008Z,22.1
2022-08-30T20:47:39.008Z,21.9
2022-08-30T21:02:45.564Z,20.8
2022-08-30T21:17:39.378Z,20.4
2022-08-30T21:32:38.999Z,20.6
2022-08-30T21:47:39.005Z,20.4
2022-08-30T22:02:39.062Z,20.4
2022-08-30T22:17:39.018Z,20.2
2022-08-30T22:32:39.006Z,19.6
2022-08-30T22:47:39.013Z,19.5
2022-08-30T23:02:39.054Z,19.4
2022-08-30T23:17:39.714Z,19.2
2022-08-30T23:32:39.002Z,19.1
2022-08-30T23:47:39.008Z,19.2
